createdAt,value
2022-12-31T00:01:08.105Z,12.31
2022-12-31T00:06:54.804Z,12.32
2022-12-31T00:12:41.993Z,12.32
2022-12-31T00:18:28.634Z,12.37
2022-12-31T00:24:15.384Z,12.27
2022-12-31T00:30:04.693Z,12.30
2022-12-31T00:35:51.842Z,12.32
2022-12-31T00:41:38.578Z,12.34
2022-12-31T00:47:26.487Z,12.31
2022-12-31T00:53:14.385Z,12.27
2022-12-31T00:59:01.285Z,12.06
2022-12-31T01:04:48.094Z,12.02
2022-12-31T01:10:53.522Z,12.01
2022-12-31T01:16:44.309Z,11.93
2022-12-31T01:22:37.338Z,11.88
2022-12-31T01:28:24.037Z,11.99
2022-12-31T01:34:10.756Z,11.94
2022-12-31T01:39:57.347Z,11.97
2022-12-31T01:45:47.028Z,12.04
2022-12-31T01:51:34.970Z,11.89
2022-12-31T01:57:23.544Z,12.00
2022-12-31T02:03:11.166Z,11.91
2022-12-31T02:08:58.523Z,11.96
2022-12-31T02:14:50.565Z,11.82
2022-12-31T02:20:56.068Z,11.89
2022-12-31T02:27:31.059Z,11.88
2022-12-31T02:33:27.486Z,11.62
2022-12-31T02:39:14.931Z,11.67
2022-12-31T02:45:01.607Z,11.66
2022-12-31T02:50:57.189Z,11.60
2022-12-31T02:57:13.600Z,11.66
2022-12-31T03:03:01.661Z,11.69
2022-12-31T03:09:06.837Z,11.65
2022-12-31T03:14:53.920Z,11.65
2022-12-31T03:21:00.569Z,11.74
2022-12-31T03:26:47.933Z,11.78
2022-12-31T03:32:35.278Z,11.81
2022-12-31T03:38:22.004Z,11.77
2022-12-31T03:44:08.606Z,11.87
2022-12-31T03:49:55.254Z,11.85
2022-12-31T03:55:41.847Z,11.90
2022-12-31T04:01:28.687Z,11.82
2022-12-31T04:07:15.580Z,11.91
2022-12-31T04:13:04.759Z,11.99
2022-12-31T04:18:51.764Z,12.08
2022-12-31T04:24:38.385Z,12.11
2022-12-31T04:30:25.013Z,12.23
2022-12-31T04:36:11.672Z,12.43
2022-12-31T04:41:58.288Z,12.59
2022-12-31T04:47:44.903Z,12.84
2022-12-31T04:53:32.637Z,13.05
2022-12-31T04:59:19.345Z,13.27
2022-12-31T05:05:06.427Z,13.36
2022-12-31T05:10:53.072Z,13.53
2022-12-31T05:16:39.674Z,13.71
2022-12-31T05:22:28.963Z,13.86
2022-12-31T05:28:16.508Z,13.98
2022-12-31T05:34:03.163Z,14.09
2022-12-31T05:39:49.820Z,14.17
2022-12-31T05:45:36.541Z,14.14
2022-12-31T05:51:23.155Z,14.17
2022-12-31T05:57:09.866Z,14.25
2022-12-31T06:02:56.713Z,14.24
2022-12-31T06:08:50.005Z,14.28
2022-12-31T06:14:39.630Z,14.28
2022-12-31T06:20:30.478Z,14.39
2022-12-31T06:26:17.179Z,14.40
2022-12-31T06:32:04.211Z,14.41
2022-12-31T06:37:52.270Z,14.47
2022-12-31T06:43:39.899Z,14.50
2022-12-31T06:49:26.572Z,14.47
2022-12-31T06:55:13.860Z,14.39
2022-12-31T07:01:22.560Z,14.37
2022-12-31T07:07:36.078Z,14.22
2022-12-31T07:13:25.674Z,14.10
2022-12-31T07:19:36.674Z,14.01
2022-12-31T07:25:23.904Z,13.99
2022-12-31T07:31:19.642Z,13.95
2022-12-31T07:37:21.397Z,14.13
2022-12-31T07:43:17.365Z,14.04
2022-12-31T07:49:04.441Z,14.10
2022-12-31T07:54:51.209Z,14.13
2022-12-31T08:00:37.977Z,14.22
2022-12-31T08:06:36.222Z,14.22
2022-12-31T08:12:24.662Z,14.31
2022-12-31T08:18:11.698Z,14.37
2022-12-31T08:24:37.951Z,14.26
2022-12-31T08:30:37.038Z,14.26
2022-12-31T08:36:56.878Z,14.27
2022-12-31T08:43:19.128Z,14.27
2022-12-31T08:49:08.360Z,14.29
2022-12-31T08:54:55.274Z,14.32
2022-12-31T09:00:42.528Z,14.42
2022-12-31T09:06:36.088Z,14.37
2022-12-31T09:12:59.307Z,14.35
2022-12-31T09:18:46.588Z,14.26
2022-12-31T09:24:34.333Z,14.32
2022-12-31T09:30:21.381Z,14.27
2022-12-31T09:36:15.298Z,14.32
2022-12-31T09:42:17.994Z,14.37
2022-12-31T09:48:07.723Z,14.28
2022-12-31T09:54:18.108Z,14.35
2022-12-31T10:00:21.515Z,14.25
2022-12-31T10:06:33.866Z,14.32
2022-12-31T10:12:40.235Z,14.38
2022-12-31T10:18:58.747Z,14.42
2022-12-31T10:25:02.880Z,14.35
2022-12-31T10:31:07.223Z,14.43
2022-12-31T10:37:15.719Z,14.26
2022-12-31T10:43:08.495Z,14.21
2022-12-31T10:49:12.395Z,14.10
2022-12-31T10:55:38.084Z,14.10
2022-12-31T11:01:33.162Z,14.04
2022-12-31T11:07:32.679Z,14.03
2022-12-31T11:13:38.221Z,14.02
2022-12-31T11:19:49.649Z,13.98
2022-12-31T11:25:55.161Z,13.99
2022-12-31T11:32:02.126Z,13.93
2022-12-31T11:38:03.220Z,13.86
2022-12-31T11:44:11.158Z,13.86
2022-12-31T11:50:03.803Z,13.78
2022-12-31T11:56:23.661Z,13.78
2022-12-31T12:02:24.110Z,13.70
2022-12-31T12:08:11.805Z,13.67
2022-12-31T12:13:58.523Z,13.67
2022-12-31T12:19:55.400Z,13.78
2022-12-31T12:25:50.682Z,13.93
2022-12-31T12:31:38.504Z,13.98
2022-12-31T12:37:36.221Z,14.00
2022-12-31T12:43:27.156Z,13.97
2022-12-31T12:49:21.509Z,14.08
2022-12-31T12:55:36.833Z,13.99
2022-12-31T13:01:36.848Z,14.04
2022-12-31T13:08:01.172Z,13.89
2022-12-31T13:13:58.662Z,13.82
2022-12-31T13:20:03.517Z,13.86
2022-12-31T13:26:12.763Z,13.79
2022-12-31T13:32:02.355Z,13.77
2022-12-31T13:37:51.208Z,13.68
2022-12-31T13:43:50.502Z,13.61
2022-12-31T13:49:47.972Z,13.56
2022-12-31T13:55:42.335Z,13.60
2022-12-31T14:02:02.562Z,13.44
2022-12-31T14:07:57.015Z,13.40
2022-12-31T14:14:07.895Z,13.37
2022-12-31T14:20:11.457Z,13.38
2022-12-31T14:26:14.458Z,13.39
2022-12-31T14:32:27.598Z,13.31
2022-12-31T14:38:35.472Z,13.21
2022-12-31T14:44:47.382Z,13.27
2022-12-31T14:50:34.825Z,13.22
2022-12-31T14:56:31.615Z,13.25
2022-12-31T15:02:29.792Z,13.22
2022-12-31T15:09:10.695Z,13.21
2022-12-31T15:15:20.483Z,13.14
2022-12-31T15:21:31.352Z,13.13
2022-12-31T15:27:34.723Z,13.11
2022-12-31T15:33:33.194Z,13.06
2022-12-31T15:39:35.938Z,13.06
2022-12-31T15:45:43.263Z,13.03
2022-12-31T15:51:34.681Z,13.03
2022-12-31T15:57:29.042Z,12.95
2022-12-31T16:03:34.452Z,12.85
2022-12-31T16:09:23.984Z,12.85
2022-12-31T16:15:22.869Z,12.72
2022-12-31T16:21:27.877Z,12.68
2022-12-31T16:27:17.196Z,12.68
2022-12-31T16:33:06.448Z,12.60
2022-12-31T16:38:59.517Z,12.70
2022-12-31T16:44:47.649Z,12.84
2022-12-31T16:50:35.121Z,12.74
2022-12-31T16:56:42.774Z,12.62
2022-12-31T17:02:47.804Z,12.71
2022-12-31T17:08:49.919Z,12.88
2022-12-31T17:14:48.851Z,12.99
2022-12-31T17:20:36.718Z,13.05
2022-12-31T17:26:37.841Z,13.08
2022-12-31T17:32:36.202Z,13.09
2022-12-31T17:38:23.216Z,13.20
2022-12-31T17:44:19.360Z,13.27
2022-12-31T17:50:19.307Z,13.41
2022-12-31T17:56:14.523Z,13.46
2022-12-31T18:02:03.406Z,13.45
2022-12-31T18:07:53.223Z,13.56
2022-12-31T18:13:40.049Z,13.58
2022-12-31T18:25:33.684Z,13.30
2022-12-31T18:31:27.269Z,13.24
2022-12-31T18:37:21.515Z,13.30
2022-12-31T18:43:19.950Z,13.27
2022-12-31T18:49:06.691Z,13.36
2022-12-31T18:54:53.734Z,13.38
2022-12-31T19:00:41.198Z,13.39
2022-12-31T19:06:28.815Z,13.46
2022-12-31T19:12:15.968Z,13.50
2022-12-31T19:18:03.180Z,13.64
2022-12-31T19:23:51.059Z,13.77
2022-12-31T19:29:38.839Z,13.87
2022-12-31T19:35:30.037Z,13.92
2022-12-31T19:41:19.989Z,13.93
2022-12-31T19:47:06.593Z,13.92
2022-12-31T19:52:59.900Z,13.94
2022-12-31T19:58:58.120Z,13.95
2022-12-31T20:04:50.305Z,13.98
2022-12-31T20:11:04.460Z,14.07
2022-12-31T20:16:53.738Z,14.05
2022-12-31T20:22:40.682Z,14.10
2022-12-31T20:28:28.040Z,14.07
2022-12-31T20:34:17.482Z,14.12
2022-12-31T20:40:05.576Z,14.01
2022-12-31T20:45:53.667Z,14.02
2022-12-31T20:51:40.651Z,13.97
2022-12-31T20:57:33.270Z,13.82
2022-12-31T21:04:02.835Z,13.74
2022-12-31T21:09:33.653Z,13.69
2022-12-31T21:15:23.062Z,13.66
2022-12-31T21:21:13.132Z,13.59
2022-12-31T21:27:01.353Z,13.51
2022-12-31T21:32:55.633Z,13.55
2022-12-31T21:38:43.087Z,13.58
2022-12-31T21:44:32.542Z,13.64
2022-12-31T21:50:19.369Z,13.68
2022-12-31T21:56:09.097Z,13.53
2022-12-31T22:02:23.722Z,13.55
2022-12-31T22:08:15.998Z,13.31
2022-12-31T22:14:02.847Z,13.25
2022-12-31T22:20:25.403Z,13.25
2022-12-31T22:26:11.023Z,13.16
2022-12-31T22:32:01.170Z,13.13
2022-12-31T22:37:57.880Z,13.21
2022-12-31T22:43:55.972Z,13.17
2022-12-31T22:49:49.766Z,13.11
2022-12-31T22:55:36.595Z,13.15
2022-12-31T23:01:30.553Z,13.16
2022-12-31T23:07:29.246Z,13.28
2022-12-31T23:13:34.741Z,13.22
2022-12-31T23:19:52.142Z,13.09
2022-12-31T23:25:40.709Z,13.19
2022-12-31T23:31:28.945Z,13.16
2022-12-31T23:37:16.356Z,13.17
2022-12-31T23:43:05.573Z,13.08
2022-12-31T23:48:53.838Z,13.10
2022-12-31T23:54:40.659Z,13.16
